sensor_id;sensor_type;location;lat;lon;timestamp;P1;durP1;ratioP1;P2;durP2;ratioP2
13404;SDS011;6773;51.192;7.024;2023-03-01T00:01:32;9.57;;;7.17;;
13404;SDS011;6773;51.192;7.024;2023-03-01T00:03:58;7.70;;;6.90;;
13404;SDS011;6773;51.192;7.024;2023-03-01T00:06:25;10.60;;;6.97;;
13404;SDS011;6773;51.192;7.024;2023-03-01T00:08:51;8.27;;;6.53;;
13404;SDS011;6773;51.192;7.024;2023-03-01T00:11:18;8.73;;;7.17;;
13404;SDS011;6773;51.192;7.024;2023-03-01T00:13:48;9.43;;;7.33;;
13404;SDS011;6773;51.192;7.024;2023-03-01T00:16:21;8.87;;;7.27;;
13404;SDS011;6773;51.192;7.024;2023-03-01T00:18:48;10.07;;;6.77;;
13404;SDS011;6773;51.192;7.024;2023-03-01T00:21:13;10.47;;;6.83;;
13404;SDS011;6773;51.192;7.024;2023-03-01T00:23:39;7.93;;;7.10;;
13404;SDS011;6773;51.192;7.024;2023-03-01T00:26:06;8.10;;;6.90;;
13404;SDS011;6773;51.192;7.024;2023-03-01T00:28:33;9.13;;;7.10;;
13404;SDS011;6773;51.192;7.024;2023-03-01T00:31:05;9.63;;;7.13;;
13404;SDS011;6773;51.192;7.024;2023-03-01T00:33:35;10.10;;;7.57;;
13404;SDS011;6773;51.192;7.024;2023-03-01T00:36:01;9.50;;;7.00;;
13404;SDS011;6773;51.192;7.024;2023-03-01T00:38:28;9.60;;;7.37;;
13404;SDS011;6773;51.192;7.024;2023-03-01T00:40:54;8.70;;;7.20;;
13404;SDS011;6773;51.192;7.024;2023-03-01T00:43:20;9.13;;;7.17;;
13404;SDS011;6773;51.192;7.024;2023-03-01T00:45:46;9.57;;;7.07;;
13404;SDS011;6773;51.192;7.024;2023-03-01T00:48:11;10.83;;;7.30;;
13404;SDS011;6773;51.192;7.024;2023-03-01T00:50:37;9.83;;;6.93;;
13404;SDS011;6773;51.192;7.024;2023-03-01T00:53:03;8.43;;;6.80;;
13404;SDS011;6773;51.192;7.024;2023-03-01T00:55:29;9.00;;;7.40;;
13404;SDS011;6773;51.192;7.024;2023-03-01T00:57:55;8.67;;;7.03;;
13404;SDS011;6773;51.192;7.024;2023-03-01T01:00:21;8.93;;;7.30;;
13404;SDS011;6773;51.192;7.024;2023-03-01T01:02:47;8.47;;;7.50;;
13404;SDS011;6773;51.192;7.024;2023-03-01T01:05:13;8.87;;;6.40;;
13404;SDS011;6773;51.192;7.024;2023-03-01T01:07:39;10.30;;;7.03;;
13404;SDS011;6773;51.192;7.024;2023-03-01T01:10:05;8.57;;;6.73;;
13404;SDS011;6773;51.192;7.024;2023-03-01T01:12:31;9.40;;;6.90;;
13404;SDS011;6773;51.192;7.024;2023-03-01T01:14:57;8.93;;;6.47;;
13404;SDS011;6773;51.192;7.024;2023-03-01T01:17:23;9.37;;;7.33;;
13404;SDS011;6773;51.192;7.024;2023-03-01T01:19:48;9.47;;;6.90;;
13404;SDS011;6773;51.192;7.024;2023-03-01T01:22:14;10.67;;;7.33;;
13404;SDS011;6773;51.192;7.024;2023-03-01T01:24:40;10.17;;;6.87;;
13404;SDS011;6773;51.192;7.024;2023-03-01T01:27:05;8.93;;;7.47;;
13404;SDS011;6773;51.192;7.024;2023-03-01T01:29:32;8.97;;;7.10;;
13404;SDS011;6773;51.192;7.024;2023-03-01T01:31:58;8.97;;;7.27;;
13404;SDS011;6773;51.192;7.024;2023-03-01T01:34:23;10.13;;;7.30;;
13404;SDS011;6773;51.192;7.024;2023-03-01T01:36:52;10.27;;;7.40;;
13404;SDS011;6773;51.192;7.024;2023-03-01T01:39:19;8.63;;;6.93;;
13404;SDS011;6773;51.192;7.024;2023-03-01T01:41:45;8.33;;;7.10;;
13404;SDS011;6773;51.192;7.024;2023-03-01T01:44:21;10.53;;;7.47;;
13404;SDS011;6773;51.192;7.024;2023-03-01T01:46:51;11.87;;;7.23;;
13404;SDS011;6773;51.192;7.024;2023-03-01T01:49:35;7.77;;;7.00;;
13404;SDS011;6773;51.192;7.024;2023-03-01T01:52:14;9.53;;;6.63;;
13404;SDS011;6773;51.192;7.024;2023-03-01T01:54:44;9.53;;;7.07;;
13404;SDS011;6773;51.192;7.024;2023-03-01T01:57:23;8.73;;;7.17;;
13404;SDS011;6773;51.192;7.024;2023-03-01T01:59:55;9.27;;;7.37;;
13404;SDS011;6773;51.192;7.024;2023-03-01T02:02:23;11.10;;;7.90;;
13404;SDS011;6773;51.192;7.024;2023-03-01T02:04:49;10.00;;;7.43;;
13404;SDS011;6773;51.192;7.024;2023-03-01T02:07:21;8.83;;;7.40;;
13404;SDS011;6773;51.192;7.024;2023-03-01T02:09:49;10.10;;;7.60;;
13404;SDS011;6773;51.192;7.024;2023-03-01T02:12:17;9.87;;;7.13;;
13404;SDS011;6773;51.192;7.024;2023-03-01T02:14:46;9.27;;;7.37;;
13404;SDS011;6773;51.192;7.024;2023-03-01T02:17:12;8.90;;;7.17;;
13404;SDS011;6773;51.192;7.024;2023-03-01T02:19:44;10.67;;;7.23;;
13404;SDS011;6773;51.192;7.024;2023-03-01T02:22:32;9.73;;;7.60;;
13404;SDS011;6773;51.192;7.024;2023-03-01T02:25:21;10.00;;;7.20;;
13404;SDS011;6773;51.192;7.024;2023-03-01T02:30:37;10.30;;;7.27;;
13404;SDS011;6773;51.192;7.024;2023-03-01T02:33:23;11.13;;;8.00;;
13404;SDS011;6773;51.192;7.024;2023-03-01T02:35:50;10.00;;;7.67;;
13404;SDS011;6773;51.192;7.024;2023-03-01T02:38:16;12.77;;;7.30;;
13404;SDS011;6773;51.192;7.024;2023-03-01T02:40:42;11.17;;;7.63;;
13404;SDS011;6773;51.192;7.024;2023-03-01T02:43:09;9.70;;;7.77;;
13404;SDS011;6773;51.192;7.024;2023-03-01T02:45:36;10.23;;;7.53;;
13404;SDS011;6773;51.192;7.024;2023-03-01T02:48:03;8.57;;;7.57;;
13404;SDS011;6773;51.192;7.024;2023-03-01T02:52:57;10.43;;;7.20;;
13404;SDS011;6773;51.192;7.024;2023-03-01T02:55:35;11.53;;;7.77;;
13404;SDS011;6773;51.192;7.024;2023-03-01T02:58:02;11.93;;;8.03;;
13404;SDS011;6773;51.192;7.024;2023-03-01T03:00:32;11.50;;;7.87;;
13404;SDS011;6773;51.192;7.024;2023-03-01T03:03:10;10.93;;;7.60;;
13404;SDS011;6773;51.192;7.024;2023-03-01T03:05:41;10.27;;;8.57;;
13404;SDS011;6773;51.192;7.024;2023-03-01T03:08:07;11.97;;;8.40;;
13404;SDS011;6773;51.192;7.024;2023-03-01T03:10:35;9.50;;;8.50;;
13404;SDS011;6773;51.192;7.024;2023-03-01T03:13:04;11.57;;;8.03;;
13404;SDS011;6773;51.192;7.024;2023-03-01T03:15:32;9.30;;;7.27;;
13404;SDS011;6773;51.192;7.024;2023-03-01T03:18:01;12.47;;;8.10;;
13404;SDS011;6773;51.192;7.024;2023-03-01T03:20:28;11.77;;;7.83;;
13404;SDS011;6773;51.192;7.024;2023-03-01T03:22:55;10.53;;;8.37;;
13404;SDS011;6773;51.192;7.024;2023-03-01T03:25:22;10.37;;;8.30;;
13404;SDS011;6773;51.192;7.024;2023-03-01T03:27:49;10.10;;;8.13;;
13404;SDS011;6773;51.192;7.024;2023-03-01T03:30:21;12.57;;;8.07;;
13404;SDS011;6773;51.192;7.024;2023-03-01T03:32:48;12.43;;;8.80;;
13404;SDS011;6773;51.192;7.024;2023-03-01T03:35:20;13.23;;;8.83;;
13404;SDS011;6773;51.192;7.024;2023-03-01T03:37:49;8.77;;;7.47;;
13404;SDS011;6773;51.192;7.024;2023-03-01T03:40:37;10.17;;;8.30;;
13404;SDS011;6773;51.192;7.024;2023-03-01T03:43:09;15.00;;;9.03;;
13404;SDS011;6773;51.192;7.024;2023-03-01T03:45:37;12.53;;;8.03;;
13404;SDS011;6773;51.192;7.024;2023-03-01T03:48:03;10.87;;;8.10;;
13404;SDS011;6773;51.192;7.024;2023-03-01T03:50:31;10.93;;;7.97;;
13404;SDS011;6773;51.192;7.024;2023-03-01T03:52:57;13.10;;;8.10;;
13404;SDS011;6773;51.192;7.024;2023-03-01T03:55:22;10.43;;;8.53;;
13404;SDS011;6773;51.192;7.024;2023-03-01T03:57:52;12.57;;;8.67;;
13404;SDS011;6773;51.192;7.024;2023-03-01T04:00:19;12.50;;;8.70;;
13404;SDS011;6773;51.192;7.024;2023-03-01T04:02:47;11.50;;;8.67;;
13404;SDS011;6773;51.192;7.024;2023-03-01T04:05:13;10.93;;;9.07;;
13404;SDS011;6773;51.192;7.024;2023-03-01T04:07:40;12.17;;;8.17;;
13404;SDS011;6773;51.192;7.024;2023-03-01T04:10:11;9.30;;;7.57;;
13404;SDS011;6773;51.192;7.024;2023-03-01T04:12:40;12.40;;;8.33;;
13404;SDS011;6773;51.192;7.024;2023-03-01T04:15:08;9.87;;;7.73;;
13404;SDS011;6773;51.192;7.024;2023-03-01T04:17:47;9.47;;;7.90;;
13404;SDS011;6773;51.192;7.024;2023-03-01T04:20:14;10.77;;;8.27;;
13404;SDS011;6773;51.192;7.024;2023-03-01T04:22:42;11.23;;;8.37;;
13404;SDS011;6773;51.192;7.024;2023-03-01T04:25:11;13.53;;;8.80;;
13404;SDS011;6773;51.192;7.024;2023-03-01T04:27:39;12.40;;;8.80;;
13404;SDS011;6773;51.192;7.024;2023-03-01T04:30:06;11.47;;;8.30;;
13404;SDS011;6773;51.192;7.024;2023-03-01T04:32:33;9.97;;;7.60;;
13404;SDS011;6773;51.192;7.024;2023-03-01T04:34:59;12.70;;;8.67;;
13404;SDS011;6773;51.192;7.024;2023-03-01T04:37:25;10.80;;;8.63;;
13404;SDS011;6773;51.192;7.024;2023-03-01T04:39:51;12.73;;;8.47;;
13404;SDS011;6773;51.192;7.024;2023-03-01T04:42:17;11.40;;;8.63;;
13404;SDS011;6773;51.192;7.024;2023-03-01T04:44:43;10.37;;;8.00;;
13404;SDS011;6773;51.192;7.024;2023-03-01T04:47:10;12.77;;;8.43;;
13404;SDS011;6773;51.192;7.024;2023-03-01T04:49:36;10.37;;;8.23;;
13404;SDS011;6773;51.192;7.024;2023-03-01T04:52:02;13.17;;;8.80;;
13404;SDS011;6773;51.192;7.024;2023-03-01T04:54:29;12.77;;;8.17;;
13404;SDS011;6773;51.192;7.024;2023-03-01T04:56:56;12.33;;;7.93;;
13404;SDS011;6773;51.192;7.024;2023-03-01T04:59:22;13.20;;;8.83;;
13404;SDS011;6773;51.192;7.024;2023-03-01T05:01:49;13.07;;;8.53;;
13404;SDS011;6773;51.192;7.024;2023-03-01T05:04:15;10.80;;;8.03;;
13404;SDS011;6773;51.192;7.024;2023-03-01T05:06:41;12.50;;;8.50;;
13404;SDS011;6773;51.192;7.024;2023-03-01T05:09:07;8.93;;;7.23;;
13404;SDS011;6773;51.192;7.024;2023-03-01T05:11:32;11.07;;;7.47;;
13404;SDS011;6773;51.192;7.024;2023-03-01T05:14:03;10.47;;;7.80;;
13404;SDS011;6773;51.192;7.024;2023-03-01T05:16:30;12.90;;;8.63;;
13404;SDS011;6773;51.192;7.024;2023-03-01T05:18:57;12.67;;;9.10;;
13404;SDS011;6773;51.192;7.024;2023-03-01T05:21:23;14.00;;;8.93;;
13404;SDS011;6773;51.192;7.024;2023-03-01T05:23:49;11.63;;;8.57;;
13404;SDS011;6773;51.192;7.024;2023-03-01T05:26:16;12.77;;;8.67;;
13404;SDS011;6773;51.192;7.024;2023-03-01T05:28:43;12.83;;;8.80;;
13404;SDS011;6773;51.192;7.024;2023-03-01T05:31:09;11.83;;;8.93;;
13404;SDS011;6773;51.192;7.024;2023-03-01T05:33:36;12.90;;;8.80;;
13404;SDS011;6773;51.192;7.024;2023-03-01T05:36:03;11.97;;;9.23;;
13404;SDS011;6773;51.192;7.024;2023-03-01T05:38:29;11.53;;;9.40;;
13404;SDS011;6773;51.192;7.024;2023-03-01T05:40:55;9.87;;;8.03;;
13404;SDS011;6773;51.192;7.024;2023-03-01T05:43:20;12.10;;;8.97;;
13404;SDS011;6773;51.192;7.024;2023-03-01T05:45:46;13.20;;;8.80;;
13404;SDS011;6773;51.192;7.024;2023-03-01T05:48:12;9.27;;;7.20;;
13404;SDS011;6773;51.192;7.024;2023-03-01T05:50:40;13.47;;;8.63;;
13404;SDS011;6773;51.192;7.024;2023-03-01T05:53:09;10.57;;;8.17;;
13404;SDS011;6773;51.192;7.024;2023-03-01T05:55:36;10.57;;;8.43;;
13404;SDS011;6773;51.192;7.024;2023-03-01T05:58:03;9.23;;;7.40;;
13404;SDS011;6773;51.192;7.024;2023-03-01T06:00:31;11.50;;;8.97;;
13404;SDS011;6773;51.192;7.024;2023-03-01T06:02:58;10.63;;;8.07;;
13404;SDS011;6773;51.192;7.024;2023-03-01T06:05:25;10.37;;;8.70;;
13404;SDS011;6773;51.192;7.024;2023-03-01T06:07:51;12.17;;;7.80;;
13404;SDS011;6773;51.192;7.024;2023-03-01T06:10:18;13.47;;;8.70;;
13404;SDS011;6773;51.192;7.024;2023-03-01T06:12:45;15.80;;;10.23;;
13404;SDS011;6773;51.192;7.024;2023-03-01T06:15:11;12.13;;;8.90;;
13404;SDS011;6773;51.192;7.024;2023-03-01T06:17:39;9.93;;;8.63;;
13404;SDS011;6773;51.192;7.024;2023-03-01T06:20:11;11.40;;;8.43;;
13404;SDS011;6773;51.192;7.024;2023-03-01T06:22:40;12.13;;;8.73;;
13404;SDS011;6773;51.192;7.024;2023-03-01T06:25:07;11.70;;;9.20;;
13404;SDS011;6773;51.192;7.024;2023-03-01T06:27:32;13.87;;;9.13;;
13404;SDS011;6773;51.192;7.024;2023-03-01T06:29:58;11.27;;;9.30;;
13404;SDS011;6773;51.192;7.024;2023-03-01T06:32:24;15.10;;;9.13;;
13404;SDS011;6773;51.192;7.024;2023-03-01T06:34:49;11.77;;;8.70;;
13404;SDS011;6773;51.192;7.024;2023-03-01T06:37:15;13.00;;;9.67;;
13404;SDS011;6773;51.192;7.024;2023-03-01T06:39:41;11.33;;;8.57;;
13404;SDS011;6773;51.192;7.024;2023-03-01T06:42:07;14.70;;;9.20;;
13404;SDS011;6773;51.192;7.024;2023-03-01T06:44:35;12.83;;;9.27;;
13404;SDS011;6773;51.192;7.024;2023-03-01T06:47:01;11.20;;;8.77;;
13404;SDS011;6773;51.192;7.024;2023-03-01T06:49:26;11.00;;;8.20;;
13404;SDS011;6773;51.192;7.024;2023-03-01T06:51:52;12.50;;;7.90;;
13404;SDS011;6773;51.192;7.024;2023-03-01T06:54:17;12.53;;;8.73;;
13404;SDS011;6773;51.192;7.024;2023-03-01T06:56:46;17.83;;;9.70;;
13404;SDS011;6773;51.192;7.024;2023-03-01T06:59:12;11.20;;;8.93;;
13404;SDS011;6773;51.192;7.024;2023-03-01T07:01:38;13.40;;;9.93;;
13404;SDS011;6773;51.192;7.024;2023-03-01T07:04:04;15.30;;;9.00;;
13404;SDS011;6773;51.192;7.024;2023-03-01T07:06:30;13.43;;;8.67;;
13404;SDS011;6773;51.192;7.024;2023-03-01T07:08:55;14.10;;;9.37;;
13404;SDS011;6773;51.192;7.024;2023-03-01T07:11:21;13.97;;;9.70;;
13404;SDS011;6773;51.192;7.024;2023-03-01T07:13:47;15.43;;;9.20;;
13404;SDS011;6773;51.192;7.024;2023-03-01T07:16:13;11.57;;;8.40;;
13404;SDS011;6773;51.192;7.024;2023-03-01T07:18:40;13.83;;;10.00;;
13404;SDS011;6773;51.192;7.024;2023-03-01T07:21:07;10.77;;;8.83;;
13404;SDS011;6773;51.192;7.024;2023-03-01T07:23:34;12.10;;;9.37;;
13404;SDS011;6773;51.192;7.024;2023-03-01T07:26:00;14.33;;;9.30;;
13404;SDS011;6773;51.192;7.024;2023-03-01T07:28:27;12.87;;;9.10;;
13404;SDS011;6773;51.192;7.024;2023-03-01T07:30:53;11.80;;;9.60;;
13404;SDS011;6773;51.192;7.024;2023-03-01T07:33:18;12.90;;;9.20;;
13404;SDS011;6773;51.192;7.024;2023-03-01T07:35:44;11.53;;;9.47;;
13404;SDS011;6773;51.192;7.024;2023-03-01T07:38:10;13.87;;;9.37;;
13404;SDS011;6773;51.192;7.024;2023-03-01T07:40:36;11.97;;;9.63;;
13404;SDS011;6773;51.192;7.024;2023-03-01T07:43:02;12.53;;;8.70;;
13404;SDS011;6773;51.192;7.024;2023-03-01T07:45:28;11.67;;;8.77;;
13404;SDS011;6773;51.192;7.024;2023-03-01T07:47:54;11.70;;;8.93;;
13404;SDS011;6773;51.192;7.024;2023-03-01T07:50:21;12.60;;;9.07;;
13404;SDS011;6773;51.192;7.024;2023-03-01T07:52:48;12.47;;;9.47;;
13404;SDS011;6773;51.192;7.024;2023-03-01T07:55:14;11.13;;;8.77;;
13404;SDS011;6773;51.192;7.024;2023-03-01T07:57:40;13.80;;;8.93;;
13404;SDS011;6773;51.192;7.024;2023-03-01T08:00:07;11.27;;;8.43;;
13404;SDS011;6773;51.192;7.024;2023-03-01T08:02:35;10.33;;;8.27;;
13404;SDS011;6773;51.192;7.024;2023-03-01T08:05:00;11.40;;;8.17;;
13404;SDS011;6773;51.192;7.024;2023-03-01T08:07:26;12.77;;;8.20;;
13404;SDS011;6773;51.192;7.024;2023-03-01T08:09:51;13.83;;;8.87;;
13404;SDS011;6773;51.192;7.024;2023-03-01T08:12:17;11.03;;;8.43;;
13404;SDS011;6773;51.192;7.024;2023-03-01T08:14:42;11.87;;;8.57;;
13404;SDS011;6773;51.192;7.024;2023-03-01T08:17:08;9.50;;;8.37;;
13404;SDS011;6773;51.192;7.024;2023-03-01T08:19:34;11.60;;;8.43;;
13404;SDS011;6773;51.192;7.024;2023-03-01T08:22:00;13.53;;;9.10;;
13404;SDS011;6773;51.192;7.024;2023-03-01T08:24:27;11.60;;;8.30;;
13404;SDS011;6773;51.192;7.024;2023-03-01T08:26:53;12.27;;;8.80;;
13404;SDS011;6773;51.192;7.024;2023-03-01T08:29:19;12.07;;;8.93;;
13404;SDS011;6773;51.192;7.024;2023-03-01T08:31:45;11.77;;;8.40;;
13404;SDS011;6773;51.192;7.024;2023-03-01T08:34:11;10.53;;;8.63;;
13404;SDS011;6773;51.192;7.024;2023-03-01T08:36:39;13.70;;;9.20;;
13404;SDS011;6773;51.192;7.024;2023-03-01T08:39:07;11.03;;;8.90;;
13404;SDS011;6773;51.192;7.024;2023-03-01T08:41:34;12.80;;;9.70;;
13404;SDS011;6773;51.192;7.024;2023-03-01T08:44:00;13.10;;;9.20;;
13404;SDS011;6773;51.192;7.024;2023-03-01T08:46:26;11.50;;;9.07;;
13404;SDS011;6773;51.192;7.024;2023-03-01T08:48:56;12.00;;;8.90;;
13404;SDS011;6773;51.192;7.024;2023-03-01T08:51:22;10.53;;;8.03;;
13404;SDS011;6773;51.192;7.024;2023-03-01T08:53:48;10.10;;;8.23;;
13404;SDS011;6773;51.192;7.024;2023-03-01T08:56:14;10.77;;;8.03;;
13404;SDS011;6773;51.192;7.024;2023-03-01T08:58:43;9.50;;;8.10;;
13404;SDS011;6773;51.192;7.024;2023-03-01T09:01:14;12.07;;;8.07;;
13404;SDS011;6773;51.192;7.024;2023-03-01T09:03:41;11.50;;;8.83;;
13404;SDS011;6773;51.192;7.024;2023-03-01T09:06:07;11.57;;;8.37;;
13404;SDS011;6773;51.192;7.024;2023-03-01T09:08:34;11.53;;;8.17;;
13404;SDS011;6773;51.192;7.024;2023-03-01T09:11:05;10.17;;;8.40;;
13404;SDS011;6773;51.192;7.024;2023-03-01T09:13:32;10.17;;;7.57;;
13404;SDS011;6773;51.192;7.024;2023-03-01T09:15:59;10.63;;;7.77;;
13404;SDS011;6773;51.192;7.024;2023-03-01T09:18:26;10.97;;;7.80;;
13404;SDS011;6773;51.192;7.024;2023-03-01T09:20:53;11.23;;;7.83;;
13404;SDS011;6773;51.192;7.024;2023-03-01T09:23:20;9.60;;;7.63;;
13404;SDS011;6773;51.192;7.024;2023-03-01T09:25:46;10.77;;;7.90;;
13404;SDS011;6773;51.192;7.024;2023-03-01T09:28:11;9.80;;;7.80;;
13404;SDS011;6773;51.192;7.024;2023-03-01T09:30:37;11.13;;;7.60;;
13404;SDS011;6773;51.192;7.024;2023-03-01T09:33:03;9.77;;;7.23;;
13404;SDS011;6773;51.192;7.024;2023-03-01T09:35:28;9.53;;;7.17;;
13404;SDS011;6773;51.192;7.024;2023-03-01T09:37:54;9.37;;;7.50;;
13404;SDS011;6773;51.192;7.024;2023-03-01T09:40:21;8.27;;;7.13;;
13404;SDS011;6773;51.192;7.024;2023-03-01T09:43:06;9.77;;;7.90;;
13404;SDS011;6773;51.192;7.024;2023-03-01T09:45:39;9.70;;;7.23;;
13404;SDS011;6773;51.192;7.024;2023-03-01T09:48:11;9.13;;;7.00;;
13404;SDS011;6773;51.192;7.024;2023-03-01T09:50:41;10.93;;;7.77;;
13404;SDS011;6773;51.192;7.024;2023-03-01T09:53:19;10.67;;;7.70;;
13404;SDS011;6773;51.192;7.024;2023-03-01T09:56:02;11.70;;;7.80;;
13404;SDS011;6773;51.192;7.024;2023-03-01T09:58:54;9.63;;;7.27;;
13404;SDS011;6773;51.192;7.024;2023-03-01T10:01:32;9.20;;;7.33;;
13404;SDS011;6773;51.192;7.024;2023-03-01T10:07:14;9.03;;;6.60;;
13404;SDS011;6773;51.192;7.024;2023-03-01T10:09:57;8.17;;;6.87;;
13404;SDS011;6773;51.192;7.024;2023-03-01T10:12:26;9.70;;;7.63;;
13404;SDS011;6773;51.192;7.024;2023-03-01T10:20:23;9.17;;;8.00;;
13404;SDS011;6773;51.192;7.024;2023-03-01T10:23:01;9.17;;;6.77;;
13404;SDS011;6773;51.192;7.024;2023-03-01T10:28:25;12.13;;;7.17;;
13404;SDS011;6773;51.192;7.024;2023-03-01T10:31:00;10.13;;;7.13;;
13404;SDS011;6773;51.192;7.024;2023-03-01T10:33:27;8.60;;;7.27;;
13404;SDS011;6773;51.192;7.024;2023-03-01T10:35:56;9.33;;;6.80;;
13404;SDS011;6773;51.192;7.024;2023-03-01T10:38:22;10.80;;;7.33;;
13404;SDS011;6773;51.192;7.024;2023-03-01T10:43:22;9.30;;;7.87;;
13404;SDS011;6773;51.192;7.024;2023-03-01T10:45:49;10.07;;;7.60;;
13404;SDS011;6773;51.192;7.024;2023-03-01T10:48:16;9.60;;;6.93;;
13404;SDS011;6773;51.192;7.024;2023-03-01T10:51:12;8.90;;;6.70;;
13404;SDS011;6773;51.192;7.024;2023-03-01T10:53:42;7.57;;;6.77;;
13404;SDS011;6773;51.192;7.024;2023-03-01T10:56:14;8.07;;;6.10;;
13404;SDS011;6773;51.192;7.024;2023-03-01T10:59:03;8.53;;;6.50;;
13404;SDS011;6773;51.192;7.024;2023-03-01T11:01:31;9.47;;;7.00;;
13404;SDS011;6773;51.192;7.024;2023-03-01T11:04:09;8.30;;;6.50;;
13404;SDS011;6773;51.192;7.024;2023-03-01T11:06:38;8.20;;;6.73;;
13404;SDS011;6773;51.192;7.024;2023-03-01T11:09:13;8.43;;;6.47;;
13404;SDS011;6773;51.192;7.024;2023-03-01T11:12:03;9.30;;;7.20;;
13404;SDS011;6773;51.192;7.024;2023-03-01T11:14:38;9.67;;;7.13;;
13404;SDS011;6773;51.192;7.024;2023-03-01T11:17:12;8.63;;;6.40;;
13404;SDS011;6773;51.192;7.024;2023-03-01T11:20:13;8.13;;;6.80;;
13404;SDS011;6773;51.192;7.024;2023-03-01T11:22:55;8.90;;;7.07;;
13404;SDS011;6773;51.192;7.024;2023-03-01T11:25:37;7.47;;;5.80;;
13404;SDS011;6773;51.192;7.024;2023-03-01T11:28:10;10.13;;;6.60;;
13404;SDS011;6773;51.192;7.024;2023-03-01T11:30:47;8.30;;;6.90;;
13404;SDS011;6773;51.192;7.024;2023-03-01T11:33:30;8.47;;;6.20;;
13404;SDS011;6773;51.192;7.024;2023-03-01T11:36:24;6.97;;;6.27;;
13404;SDS011;6773;51.192;7.024;2023-03-01T11:39:42;9.03;;;6.93;;
13404;SDS011;6773;51.192;7.024;2023-03-01T11:42:10;9.30;;;7.20;;
13404;SDS011;6773;51.192;7.024;2023-03-01T11:44:40;9.70;;;7.40;;
13404;SDS011;6773;51.192;7.024;2023-03-01T11:47:11;9.77;;;7.53;;
13404;SDS011;6773;51.192;7.024;2023-03-01T11:49:51;9.70;;;8.10;;
13404;SDS011;6773;51.192;7.024;2023-03-01T11:52:25;9.27;;;7.10;;
13404;SDS011;6773;51.192;7.024;2023-03-01T11:58:14;9.60;;;7.60;;
13404;SDS011;6773;51.192;7.024;2023-03-01T12:06:18;10.90;;;7.93;;
13404;SDS011;6773;51.192;7.024;2023-03-01T12:28:32;9.07;;;6.60;;
13404;SDS011;6773;51.192;7.024;2023-03-01T12:41:47;7.27;;;6.43;;
13404;SDS011;6773;51.192;7.024;2023-03-01T12:47:14;11.00;;;6.83;;
13404;SDS011;6773;51.192;7.024;2023-03-01T12:50:02;7.13;;;6.23;;
13404;SDS011;6773;51.192;7.024;2023-03-01T12:52:41;9.47;;;6.50;;
13404;SDS011;6773;51.192;7.024;2023-03-01T12:55:26;6.47;;;5.67;;
13404;SDS011;6773;51.192;7.024;2023-03-01T13:00:45;8.60;;;6.13;;
13404;SDS011;6773;51.192;7.024;2023-03-01T13:11:32;7.30;;;6.00;;
13404;SDS011;6773;51.192;7.024;2023-03-01T13:14:34;11.40;;;6.03;;
13404;SDS011;6773;51.192;7.024;2023-03-01T13:16:45;9.70;;;6.80;;
13404;SDS011;6773;51.192;7.024;2023-03-01T13:19:20;8.73;;;5.90;;
13404;SDS011;6773;51.192;7.024;2023-03-01T13:21:47;10.00;;;6.60;;
13404;SDS011;6773;51.192;7.024;2023-03-01T13:24:28;7.73;;;6.03;;
13404;SDS011;6773;51.192;7.024;2023-03-01T13:34:55;7.40;;;5.97;;
13404;SDS011;6773;51.192;7.024;2023-03-01T13:37:27;9.23;;;6.80;;
13404;SDS011;6773;51.192;7.024;2023-03-01T13:39:59;7.43;;;6.13;;
13404;SDS011;6773;51.192;7.024;2023-03-01T13:42:39;8.97;;;6.40;;
13404;SDS011;6773;51.192;7.024;2023-03-01T13:48:17;7.97;;;5.10;;
13404;SDS011;6773;51.192;7.024;2023-03-01T13:50:48;7.00;;;5.90;;
13404;SDS011;6773;51.192;7.024;2023-03-01T13:53:18;10.10;;;6.20;;
13404;SDS011;6773;51.192;7.024;2023-03-01T13:55:48;8.60;;;6.30;;
13404;SDS011;6773;51.192;7.024;2023-03-01T13:58:28;7.97;;;6.40;;
13404;SDS011;6773;51.192;7.024;2023-03-01T14:00:59;7.03;;;6.00;;
13404;SDS011;6773;51.192;7.024;2023-03-01T14:03:28;7.87;;;6.47;;
13404;SDS011;6773;51.192;7.024;2023-03-01T14:08:36;8.83;;;6.33;;
13404;SDS011;6773;51.192;7.024;2023-03-01T14:13:47;8.67;;;6.37;;
13404;SDS011;6773;51.192;7.024;2023-03-01T14:16:35;8.63;;;6.57;;
13404;SDS011;6773;51.192;7.024;2023-03-01T14:19:25;8.50;;;6.87;;
13404;SDS011;6773;51.192;7.024;2023-03-01T14:22:25;7.00;;;6.17;;
13404;SDS011;6773;51.192;7.024;2023-03-01T14:24:48;7.97;;;6.37;;
13404;SDS011;6773;51.192;7.024;2023-03-01T14:27:19;8.00;;;6.37;;
13404;SDS011;6773;51.192;7.024;2023-03-01T14:30:10;8.60;;;6.30;;
13404;SDS011;6773;51.192;7.024;2023-03-01T14:32:37;8.43;;;6.20;;
13404;SDS011;6773;51.192;7.024;2023-03-01T14:35:21;7.97;;;5.73;;
13404;SDS011;6773;51.192;7.024;2023-03-01T14:37:49;7.83;;;5.80;;
13404;SDS011;6773;51.192;7.024;2023-03-01T14:40:28;7.67;;;6.17;;
13404;SDS011;6773;51.192;7.024;2023-03-01T14:42:54;8.93;;;5.53;;
13404;SDS011;6773;51.192;7.024;2023-03-01T14:45:24;7.80;;;6.07;;
13404;SDS011;6773;51.192;7.024;2023-03-01T14:47:52;7.90;;;5.90;;
13404;SDS011;6773;51.192;7.024;2023-03-01T14:50:21;7.93;;;6.30;;
13404;SDS011;6773;51.192;7.024;2023-03-01T14:52:57;7.70;;;6.40;;
13404;SDS011;6773;51.192;7.024;2023-03-01T14:55:26;7.17;;;5.87;;
13404;SDS011;6773;51.192;7.024;2023-03-01T14:58:04;7.87;;;5.77;;
13404;SDS011;6773;51.192;7.024;2023-03-01T15:00:31;7.10;;;5.83;;
13404;SDS011;6773;51.192;7.024;2023-03-01T15:03:14;6.10;;;5.50;;
13404;SDS011;6773;51.192;7.024;2023-03-01T15:05:48;9.07;;;5.93;;
13404;SDS011;6773;51.192;7.024;2023-03-01T15:08:16;7.37;;;5.07;;
13404;SDS011;6773;51.192;7.024;2023-03-01T15:10:55;8.23;;;5.50;;
13404;SDS011;6773;51.192;7.024;2023-03-01T15:13:24;5.57;;;5.07;;
13404;SDS011;6773;51.192;7.024;2023-03-01T15:16:00;7.17;;;5.27;;
13404;SDS011;6773;51.192;7.024;2023-03-01T15:18:33;7.00;;;5.23;;
13404;SDS011;6773;51.192;7.024;2023-03-01T15:21:13;8.63;;;5.20;;
13404;SDS011;6773;51.192;7.024;2023-03-01T15:23:40;7.37;;;5.40;;
13404;SDS011;6773;51.192;7.024;2023-03-01T15:26:06;8.33;;;5.30;;
13404;SDS011;6773;51.192;7.024;2023-03-01T15:28:51;5.60;;;4.70;;
13404;SDS011;6773;51.192;7.024;2023-03-01T15:31:23;9.07;;;5.93;;
13404;SDS011;6773;51.192;7.024;2023-03-01T15:34:19;6.23;;;5.40;;
13404;SDS011;6773;51.192;7.024;2023-03-01T15:36:47;7.70;;;5.90;;
13404;SDS011;6773;51.192;7.024;2023-03-01T15:41:56;6.57;;;5.37;;
13404;SDS011;6773;51.192;7.024;2023-03-01T15:44:26;7.73;;;5.47;;
13404;SDS011;6773;51.192;7.024;2023-03-01T15:46:55;7.83;;;5.17;;
13404;SDS011;6773;51.192;7.024;2023-03-01T15:49:37;6.17;;;5.37;;
13404;SDS011;6773;51.192;7.024;2023-03-01T15:52:05;7.60;;;5.27;;
13404;SDS011;6773;51.192;7.024;2023-03-01T15:54:40;8.00;;;5.27;;
13404;SDS011;6773;51.192;7.024;2023-03-01T15:57:12;7.60;;;5.53;;
13404;SDS011;6773;51.192;7.024;2023-03-01T15:59:39;6.53;;;5.17;;
13404;SDS011;6773;51.192;7.024;2023-03-01T16:02:10;8.20;;;5.87;;
13404;SDS011;6773;51.192;7.024;2023-03-01T16:04:37;9.83;;;5.70;;
13404;SDS011;6773;51.192;7.024;2023-03-01T16:07:03;6.07;;;5.13;;
13404;SDS011;6773;51.192;7.024;2023-03-01T16:09:29;6.50;;;5.20;;
13404;SDS011;6773;51.192;7.024;2023-03-01T16:11:55;6.97;;;5.50;;
13404;SDS011;6773;51.192;7.024;2023-03-01T16:14:20;6.77;;;5.03;;
13404;SDS011;6773;51.192;7.024;2023-03-01T16:16:47;6.80;;;5.37;;
13404;SDS011;6773;51.192;7.024;2023-03-01T16:19:14;7.20;;;5.17;;
13404;SDS011;6773;51.192;7.024;2023-03-01T16:21:40;6.03;;;5.23;;
13404;SDS011;6773;51.192;7.024;2023-03-01T16:24:07;7.03;;;5.17;;
13404;SDS011;6773;51.192;7.024;2023-03-01T16:26:33;6.57;;;5.43;;
13404;SDS011;6773;51.192;7.024;2023-03-01T16:29:00;6.17;;;4.90;;
13404;SDS011;6773;51.192;7.024;2023-03-01T16:31:26;6.53;;;5.37;;
13404;SDS011;6773;51.192;7.024;2023-03-01T16:33:54;6.10;;;5.43;;
13404;SDS011;6773;51.192;7.024;2023-03-01T16:36:21;8.30;;;5.90;;
13404;SDS011;6773;51.192;7.024;2023-03-01T16:38:48;6.43;;;5.00;;
13404;SDS011;6773;51.192;7.024;2023-03-01T16:41:15;5.73;;;4.87;;
13404;SDS011;6773;51.192;7.024;2023-03-01T16:43:42;7.13;;;5.13;;